sensor_id;sensor_type;location;lat;lon;timestamp;temperature;humidity
16966;DHT22;8599;47.852;12.070;2024-01-15T00:02:08;-2.00;99.90
16966;DHT22;8599;47.852;12.070;2024-01-15T00:04:36;-2.00;99.90
16966;DHT22;8599;47.852;12.070;2024-01-15T00:07:04;-2.00;99.90
16966;DHT22;8599;47.852;12.070;2024-01-15T00:09:30;-2.00;99.90
16966;DHT22;8599;47.852;12.070;2024-01-15T00:11:58;-2.00;99.90
16966;DHT22;8599;47.852;12.070;2024-01-15T00:14:25;-2.00;99.90
16966;DHT22;8599;47.852;12.070;2024-01-15T00:16:52;-2.00;99.90
16966;DHT22;8599;47.852;12.070;2024-01-15T00:19:22;-2.00;99.90
16966;DHT22;8599;47.852;12.070;2024-01-15T00:21:49;-2.00;99.90
16966;DHT22;8599;47.852;12.070;2024-01-15T00:24:16;-2.00;99.90
16966;DHT22;8599;47.852;12.070;2024-01-15T00:26:43;-2.00;99.90
16966;DHT22;8599;47.852;12.070;2024-01-15T00:29:10;-2.00;99.90
16966;DHT22;8599;47.852;12.070;2024-01-15T00:31:37;-2.00;99.90
16966;DHT22;8599;47.852;12.070;2024-01-15T00:34:03;-1.90;99.90
16966;DHT22;8599;47.852;12.070;2024-01-15T00:36:32;-1.90;99.90
16966;DHT22;8599;47.852;12.070;2024-01-15T00:38:59;-2.00;99.90
16966;DHT22;8599;47.852;12.070;2024-01-15T00:41:26;-2.00;99.90
16966;DHT22;8599;47.852;12.070;2024-01-15T00:43:53;-2.00;99.90
16966;DHT22;8599;47.852;12.070;2024-01-15T00:46:20;-2.10;99.90
16966;DHT22;8599;47.852;12.070;2024-01-15T00:48:47;-2.10;99.90
16966;DHT22;8599;47.852;12.070;2024-01-15T00:51:14;-2.10;99.90
16966;DHT22;8599;47.852;12.070;2024-01-15T00:53:42;-2.10;99.90
16966;DHT22;8599;47.852;12.070;2024-01-15T00:56:09;-2.20;99.90
16966;DHT22;8599;47.852;12.070;2024-01-15T00:58:36;-2.20;99.90
16966;DHT22;8599;47.852;12.070;2024-01-15T01:01:03;-2.20;99.90
16966;DHT22;8599;47.852;12.070;2024-01-15T01:03:30;-2.20;99.90
16966;DHT22;8599;47.852;12.070;2024-01-15T01:05:57;-2.30;99.90
16966;DHT22;8599;47.852;12.070;2024-01-15T01:08:23;-2.20;99.90
16966;DHT22;8599;47.852;12.070;2024-01-15T01:10:52;-2.20;99.90
16966;DHT22;8599;47.852;12.070;2024-01-15T01:13:18;-2.20;99.90
16966;DHT22;8599;47.852;12.070;2024-01-15T01:15:45;-2.20;99.90
16966;DHT22;8599;47.852;12.070;2024-01-15T01:18:12;-2.10;99.90
16966;DHT22;8599;47.852;12.070;2024-01-15T01:20:39;-2.10;99.90
16966;DHT22;8599;47.852;12.070;2024-01-15T01:23:06;-2.20;99.90
16966;DHT22;8599;47.852;12.070;2024-01-15T01:25:33;-2.00;99.90
16966;DHT22;8599;47.852;12.070;2024-01-15T01:28:01;-2.10;99.90
16966;DHT22;8599;47.852;12.070;2024-01-15T01:30:27;-2.20;99.90
16966;DHT22;8599;47.852;12.070;2024-01-15T01:32:54;-2.20;99.90
16966;DHT22;8599;47.852;12.070;2024-01-15T01:35:21;-2.30;99.90
16966;DHT22;8599;47.852;12.070;2024-01-15T01:37:48;-2.30;99.90
16966;DHT22;8599;47.852;12.070;2024-01-15T01:40:15;-2.30;99.90
16966;DHT22;8599;47.852;12.070;2024-01-15T01:42:42;-2.20;99.90
16966;DHT22;8599;47.852;12.070;2024-01-15T01:45:11;-2.20;99.90
16966;DHT22;8599;47.852;12.070;2024-01-15T01:47:38;-2.30;99.90
16966;DHT22;8599;47.852;12.070;2024-01-15T01:50:06;-2.20;99.90
16966;DHT22;8599;47.852;12.070;2024-01-15T01:52:33;-2.10;99.90
16966;DHT22;8599;47.852;12.070;2024-01-15T01:55:02;-2.10;99.90
16966;DHT22;8599;47.852;12.070;2024-01-15T01:57:29;-2.10;99.90
16966;DHT22;8599;47.852;12.070;2024-01-15T01:59:58;-1.90;99.90
16966;DHT22;8599;47.852;12.070;2024-01-15T02:02:26;-1.90;99.90
16966;DHT22;8599;47.852;12.070;2024-01-15T02:04:53;-1.80;99.90
16966;DHT22;8599;47.852;12.070;2024-01-15T02:07:20;-1.60;99.90
16966;DHT22;8599;47.852;12.070;2024-01-15T02:09:47;-1.40;99.90
16966;DHT22;8599;47.852;12.070;2024-01-15T02:12:14;-1.10;99.90
16966;DHT22;8599;47.852;12.070;2024-01-15T02:14:41;-0.80;99.90
16966;DHT22;8599;47.852;12.070;2024-01-15T02:17:08;-0.70;99.90
16966;DHT22;8599;47.852;12.070;2024-01-15T02:19:36;-0.70;99.90
16966;DHT22;8599;47.852;12.070;2024-01-15T02:22:05;-0.50;99.90
16966;DHT22;8599;47.852;12.070;2024-01-15T02:24:33;-0.30;99.90
16966;DHT22;8599;47.852;12.070;2024-01-15T02:27:00;-0.10;99.90
16966;DHT22;8599;47.852;12.070;2024-01-15T02:29:27;0.10;99.90
16966;DHT22;8599;47.852;12.070;2024-01-15T02:31:54;0.10;99.90
16966;DHT22;8599;47.852;12.070;2024-01-15T02:34:20;0.20;99.90
16966;DHT22;8599;47.852;12.070;2024-01-15T02:36:47;0.20;99.90
16966;DHT22;8599;47.852;12.070;2024-01-15T02:39:14;0.20;99.90
16966;DHT22;8599;47.852;12.070;2024-01-15T02:41:42;0.20;99.90
16966;DHT22;8599;47.852;12.070;2024-01-15T02:44:09;0.20;99.90
16966;DHT22;8599;47.852;12.070;2024-01-15T02:46:36;0.20;99.90
16966;DHT22;8599;47.852;12.070;2024-01-15T02:49:03;0.20;99.90
16966;DHT22;8599;47.852;12.070;2024-01-15T02:51:30;0.20;99.90
16966;DHT22;8599;47.852;12.070;2024-01-15T02:53:56;0.30;99.90
16966;DHT22;8599;47.852;12.070;2024-01-15T02:56:23;0.30;99.90
16966;DHT22;8599;47.852;12.070;2024-01-15T02:58:51;0.30;99.90
16966;DHT22;8599;47.852;12.070;2024-01-15T03:01:18;0.20;99.90
16966;DHT22;8599;47.852;12.070;2024-01-15T03:03:45;0.20;99.90
16966;DHT22;8599;47.852;12.070;2024-01-15T03:06:12;0.30;99.90
16966;DHT22;8599;47.852;12.070;2024-01-15T03:08:39;0.40;99.90
16966;DHT22;8599;47.852;12.070;2024-01-15T03:11:06;0.40;99.90
16966;DHT22;8599;47.852;12.070;2024-01-15T03:13:35;0.40;99.90
16966;DHT22;8599;47.852;12.070;2024-01-15T03:16:04;0.40;99.90
16966;DHT22;8599;47.852;12.070;2024-01-15T03:18:31;0.40;99.90
16966;DHT22;8599;47.852;12.070;2024-01-15T03:20:58;0.40;99.90
16966;DHT22;8599;47.852;12.070;2024-01-15T03:23:26;0.40;99.90
16966;DHT22;8599;47.852;12.070;2024-01-15T03:25:53;0.30;99.90
16966;DHT22;8599;47.852;12.070;2024-01-15T03:28:20;0.40;99.90
16966;DHT22;8599;47.852;12.070;2024-01-15T03:30:47;0.40;99.90
16966;DHT22;8599;47.852;12.070;2024-01-15T03:33:15;0.50;99.90
16966;DHT22;8599;47.852;12.070;2024-01-15T03:35:42;0.50;99.90
16966;DHT22;8599;47.852;12.070;2024-01-15T03:38:09;0.50;99.90
16966;DHT22;8599;47.852;12.070;2024-01-15T03:40:36;0.50;99.90
16966;DHT22;8599;47.852;12.070;2024-01-15T03:43:03;0.40;99.90
16966;DHT22;8599;47.852;12.070;2024-01-15T03:45:29;0.40;99.90
16966;DHT22;8599;47.852;12.070;2024-01-15T03:47:56;0.30;99.90
16966;DHT22;8599;47.852;12.070;2024-01-15T03:50:24;0.30;99.90
16966;DHT22;8599;47.852;12.070;2024-01-15T03:52:51;0.30;99.90
16966;DHT22;8599;47.852;12.070;2024-01-15T03:55:18;0.30;99.90
16966;DHT22;8599;47.852;12.070;2024-01-15T03:57:45;0.20;99.90
16966;DHT22;8599;47.852;12.070;2024-01-15T04:00:13;0.30;99.90
16966;DHT22;8599;47.852;12.070;2024-01-15T04:02:42;0.20;99.90
16966;DHT22;8599;47.852;12.070;2024-01-15T04:05:09;0.30;99.90
16966;DHT22;8599;47.852;12.070;2024-01-15T04:07:37;0.20;99.90
16966;DHT22;8599;47.852;12.070;2024-01-15T04:10:05;0.30;99.90
16966;DHT22;8599;47.852;12.070;2024-01-15T04:12:31;0.20;99.90
16966;DHT22;8599;47.852;12.070;2024-01-15T04:14:58;0.20;99.90
16966;DHT22;8599;47.852;12.070;2024-01-15T04:17:25;0.20;99.90
16966;DHT22;8599;47.852;12.070;2024-01-15T04:19:52;0.30;99.90
16966;DHT22;8599;47.852;12.070;2024-01-15T04:22:19;0.40;99.90
16966;DHT22;8599;47.852;12.070;2024-01-15T04:24:47;0.40;99.90
16966;DHT22;8599;47.852;12.070;2024-01-15T04:27:14;0.40;99.90
16966;DHT22;8599;47.852;12.070;2024-01-15T04:29:41;0.40;99.90
16966;DHT22;8599;47.852;12.070;2024-01-15T04:32:10;0.40;99.90
16966;DHT22;8599;47.852;12.070;2024-01-15T04:34:37;0.40;99.90
16966;DHT22;8599;47.852;12.070;2024-01-15T04:37:03;0.40;99.90
16966;DHT22;8599;47.852;12.070;2024-01-15T04:39:30;0.50;99.90
16966;DHT22;8599;47.852;12.070;2024-01-15T04:41:58;0.60;99.90
16966;DHT22;8599;47.852;12.070;2024-01-15T04:44:25;0.40;99.90
16966;DHT22;8599;47.852;12.070;2024-01-15T04:46:52;0.40;99.90
16966;DHT22;8599;47.852;12.070;2024-01-15T04:49:19;0.50;99.90
16966;DHT22;8599;47.852;12.070;2024-01-15T04:51:46;0.40;99.90
16966;DHT22;8599;47.852;12.070;2024-01-15T04:54:12;0.60;99.90
16966;DHT22;8599;47.852;12.070;2024-01-15T04:56:43;0.50;99.90
16966;DHT22;8599;47.852;12.070;2024-01-15T04:59:11;0.60;99.90
16966;DHT22;8599;47.852;12.070;2024-01-15T05:01:38;0.60;99.90
16966;DHT22;8599;47.852;12.070;2024-01-15T05:04:05;0.60;99.90
16966;DHT22;8599;47.852;12.070;2024-01-15T05:06:32;0.50;99.90
16966;DHT22;8599;47.852;12.070;2024-01-15T05:08:59;0.60;99.90
16966;DHT22;8599;47.852;12.070;2024-01-15T05:11:26;0.50;99.90
16966;DHT22;8599;47.852;12.070;2024-01-15T05:13:53;0.60;99.90
16966;DHT22;8599;47.852;12.070;2024-01-15T05:16:21;0.70;99.90
16966;DHT22;8599;47.852;12.070;2024-01-15T05:18:48;0.60;99.90
16966;DHT22;8599;47.852;12.070;2024-01-15T05:21:15;0.60;99.90
16966;DHT22;8599;47.852;12.070;2024-01-15T05:23:41;0.60;99.90
16966;DHT22;8599;47.852;12.070;2024-01-15T05:26:08;0.60;99.90
16966;DHT22;8599;47.852;12.070;2024-01-15T05:28:35;0.90;99.90
16966;DHT22;8599;47.852;12.070;2024-01-15T05:31:02;0.80;99.90
16966;DHT22;8599;47.852;12.070;2024-01-15T05:33:31;0.70;99.90
16966;DHT22;8599;47.852;12.070;2024-01-15T05:35:57;0.60;99.90
16966;DHT22;8599;47.852;12.070;2024-01-15T05:38:25;0.70;99.90
16966;DHT22;8599;47.852;12.070;2024-01-15T05:40:51;0.70;99.90
16966;DHT22;8599;47.852;12.070;2024-01-15T05:43:18;0.70;99.90
16966;DHT22;8599;47.852;12.070;2024-01-15T05:45:45;0.60;99.90
16966;DHT22;8599;47.852;12.070;2024-01-15T05:48:12;0.60;99.90
16966;DHT22;8599;47.852;12.070;2024-01-15T05:50:41;0.70;99.90
16966;DHT22;8599;47.852;12.070;2024-01-15T05:53:08;0.70;99.90
16966;DHT22;8599;47.852;12.070;2024-01-15T05:55:36;0.60;99.90
16966;DHT22;8599;47.852;12.070;2024-01-15T05:58:03;0.70;99.90
16966;DHT22;8599;47.852;12.070;2024-01-15T06:00:30;0.70;99.90
16966;DHT22;8599;47.852;12.070;2024-01-15T06:02:58;0.60;99.90
16966;DHT22;8599;47.852;12.070;2024-01-15T06:05:25;0.50;99.90
16966;DHT22;8599;47.852;12.070;2024-01-15T06:07:53;0.50;99.90
16966;DHT22;8599;47.852;12.070;2024-01-15T06:10:20;0.60;99.90
16966;DHT22;8599;47.852;12.070;2024-01-15T06:12:47;0.70;99.90
16966;DHT22;8599;47.852;12.070;2024-01-15T06:15:14;0.60;99.90
16966;DHT22;8599;47.852;12.070;2024-01-15T06:17:40;0.50;99.90
16966;DHT22;8599;47.852;12.070;2024-01-15T06:20:08;0.50;99.90
16966;DHT22;8599;47.852;12.070;2024-01-15T06:22:35;0.40;99.90
16966;DHT22;8599;47.852;12.070;2024-01-15T06:25:06;0.50;99.90
16966;DHT22;8599;47.852;12.070;2024-01-15T06:27:33;0.50;99.90
16966;DHT22;8599;47.852;12.070;2024-01-15T06:30:00;0.50;99.90
16966;DHT22;8599;47.852;12.070;2024-01-15T06:32:27;0.70;99.90
16966;DHT22;8599;47.852;12.070;2024-01-15T06:34:54;0.70;99.90
16966;DHT22;8599;47.852;12.070;2024-01-15T06:37:21;0.60;99.90
16966;DHT22;8599;47.852;12.070;2024-01-15T06:39:48;0.60;99.90
16966;DHT22;8599;47.852;12.070;2024-01-15T06:42:16;0.60;99.90
16966;DHT22;8599;47.852;12.070;2024-01-15T06:44:42;0.70;99.90
16966;DHT22;8599;47.852;12.070;2024-01-15T06:47:09;0.60;99.90
16966;DHT22;8599;47.852;12.070;2024-01-15T06:49:36;0.60;99.90
16966;DHT22;8599;47.852;12.070;2024-01-15T06:52:03;0.60;99.90
16966;DHT22;8599;47.852;12.070;2024-01-15T06:54:30;0.60;99.90
16966;DHT22;8599;47.852;12.070;2024-01-15T06:56:57;0.60;99.90
16966;DHT22;8599;47.852;12.070;2024-01-15T06:59:25;0.70;99.90
16966;DHT22;8599;47.852;12.070;2024-01-15T07:01:52;0.70;99.90
16966;DHT22;8599;47.852;12.070;2024-01-15T07:04:19;0.60;99.90
16966;DHT22;8599;47.852;12.070;2024-01-15T07:06:46;0.50;99.90
16966;DHT22;8599;47.852;12.070;2024-01-15T07:09:13;0.50;99.90
16966;DHT22;8599;47.852;12.070;2024-01-15T07:11:44;0.50;99.90
16966;DHT22;8599;47.852;12.070;2024-01-15T07:14:12;0.60;99.90
16966;DHT22;8599;47.852;12.070;2024-01-15T07:16:40;0.70;99.90
16966;DHT22;8599;47.852;12.070;2024-01-15T07:19:07;0.60;99.90
16966;DHT22;8599;47.852;12.070;2024-01-15T07:21:34;0.60;99.90
16966;DHT22;8599;47.852;12.070;2024-01-15T07:24:01;0.60;99.90
16966;DHT22;8599;47.852;12.070;2024-01-15T07:26:30;0.70;99.90
16966;DHT22;8599;47.852;12.070;2024-01-15T07:28:57;0.60;99.90
16966;DHT22;8599;47.852;12.070;2024-01-15T07:31:23;0.70;99.90
16966;DHT22;8599;47.852;12.070;2024-01-15T07:33:51;0.50;99.90
16966;DHT22;8599;47.852;12.070;2024-01-15T07:36:18;0.60;99.90
16966;DHT22;8599;47.852;12.070;2024-01-15T07:38:45;0.70;99.90
16966;DHT22;8599;47.852;12.070;2024-01-15T07:41:13;0.60;99.90
16966;DHT22;8599;47.852;12.070;2024-01-15T07:43:40;0.60;99.90
16966;DHT22;8599;47.852;12.070;2024-01-15T07:46:07;0.50;99.90
16966;DHT22;8599;47.852;12.070;2024-01-15T07:48:34;0.50;99.90
16966;DHT22;8599;47.852;12.070;2024-01-15T07:51:02;0.40;99.90
16966;DHT22;8599;47.852;12.070;2024-01-15T07:53:29;0.40;99.90
16966;DHT22;8599;47.852;12.070;2024-01-15T07:55:56;0.30;99.90
16966;DHT22;8599;47.852;12.070;2024-01-15T07:58:24;0.40;99.90
16966;DHT22;8599;47.852;12.070;2024-01-15T08:00:50;0.30;99.90
16966;DHT22;8599;47.852;12.070;2024-01-15T08:03:17;0.30;99.90
16966;DHT22;8599;47.852;12.070;2024-01-15T08:05:44;0.30;99.90
16966;DHT22;8599;47.852;12.070;2024-01-15T08:08:13;0.30;99.90
16966;DHT22;8599;47.852;12.070;2024-01-15T08:10:40;0.30;99.90
16966;DHT22;8599;47.852;12.070;2024-01-15T08:13:07;0.30;99.90
16966;DHT22;8599;47.852;12.070;2024-01-15T08:15:34;0.40;99.90
16966;DHT22;8599;47.852;12.070;2024-01-15T08:18:01;0.50;99.90
16966;DHT22;8599;47.852;12.070;2024-01-15T08:20:28;0.50;99.90
16966;DHT22;8599;47.852;12.070;2024-01-15T08:22:55;0.40;99.90
16966;DHT22;8599;47.852;12.070;2024-01-15T08:25:23;0.50;99.90
16966;DHT22;8599;47.852;12.070;2024-01-15T08:27:51;0.50;99.90
16966;DHT22;8599;47.852;12.070;2024-01-15T08:30:18;0.60;99.90
16966;DHT22;8599;47.852;12.070;2024-01-15T08:32:46;0.60;99.90
16966;DHT22;8599;47.852;12.070;2024-01-15T08:35:12;0.60;99.90
16966;DHT22;8599;47.852;12.070;2024-01-15T08:37:39;0.70;99.90
16966;DHT22;8599;47.852;12.070;2024-01-15T08:40:07;0.70;99.90
16966;DHT22;8599;47.852;12.070;2024-01-15T08:42:35;0.70;99.90
16966;DHT22;8599;47.852;12.070;2024-01-15T08:45:02;0.60;99.90
16966;DHT22;8599;47.852;12.070;2024-01-15T08:47:29;0.60;99.90
16966;DHT22;8599;47.852;12.070;2024-01-15T08:49:56;0.60;99.90
16966;DHT22;8599;47.852;12.070;2024-01-15T08:52:23;0.60;99.90
16966;DHT22;8599;47.852;12.070;2024-01-15T08:54:49;0.60;99.90
16966;DHT22;8599;47.852;12.070;2024-01-15T08:57:16;0.50;99.90
16966;DHT22;8599;47.852;12.070;2024-01-15T08:59:44;0.70;99.90
16966;DHT22;8599;47.852;12.070;2024-01-15T09:02:11;0.70;99.90
16966;DHT22;8599;47.852;12.070;2024-01-15T09:04:38;0.80;99.90
16966;DHT22;8599;47.852;12.070;2024-01-15T09:07:05;0.70;99.90
16966;DHT22;8599;47.852;12.070;2024-01-15T09:09:32;0.70;99.90
16966;DHT22;8599;47.852;12.070;2024-01-15T09:11:59;0.70;99.90
16966;DHT22;8599;47.852;12.070;2024-01-15T09:14:26;0.80;99.90
16966;DHT22;8599;47.852;12.070;2024-01-15T09:16:56;0.80;99.90
16966;DHT22;8599;47.852;12.070;2024-01-15T09:19:23;0.90;99.90
16966;DHT22;8599;47.852;12.070;2024-01-15T09:21:49;0.70;99.90
16966;DHT22;8599;47.852;12.070;2024-01-15T09:24:16;0.80;99.90
16966;DHT22;8599;47.852;12.070;2024-01-15T09:26:43;0.90;99.90
16966;DHT22;8599;47.852;12.070;2024-01-15T09:29:10;1.00;99.90
16966;DHT22;8599;47.852;12.070;2024-01-15T09:31:37;0.90;99.90
16966;DHT22;8599;47.852;12.070;2024-01-15T09:34:05;0.80;99.90
16966;DHT22;8599;47.852;12.070;2024-01-15T09:36:32;0.80;99.90
16966;DHT22;8599;47.852;12.070;2024-01-15T09:38:59;0.70;99.90
16966;DHT22;8599;47.852;12.070;2024-01-15T09:41:26;0.60;99.90
16966;DHT22;8599;47.852;12.070;2024-01-15T09:43:53;0.60;99.90
16966;DHT22;8599;47.852;12.070;2024-01-15T09:46:20;0.50;99.90
16966;DHT22;8599;47.852;12.070;2024-01-15T09:48:47;0.60;99.90
16966;DHT22;8599;47.852;12.070;2024-01-15T09:51:16;0.70;99.90
16966;DHT22;8599;47.852;12.070;2024-01-15T09:53:44;0.70;99.90
16966;DHT22;8599;47.852;12.070;2024-01-15T09:56:12;0.60;99.90
16966;DHT22;8599;47.852;12.070;2024-01-15T09:58:39;0.60;99.90
16966;DHT22;8599;47.852;12.070;2024-01-15T10:01:08;0.50;99.90
16966;DHT22;8599;47.852;12.070;2024-01-15T10:03:34;0.60;99.90
16966;DHT22;8599;47.852;12.070;2024-01-15T10:06:02;0.70;99.90
16966;DHT22;8599;47.852;12.070;2024-01-15T10:08:31;0.70;99.90
16966;DHT22;8599;47.852;12.070;2024-01-15T10:10:58;0.70;99.90
16966;DHT22;8599;47.852;12.070;2024-01-15T10:13:25;0.70;99.90
16966;DHT22;8599;47.852;12.070;2024-01-15T10:15:53;0.70;99.90
16966;DHT22;8599;47.852;12.070;2024-01-15T10:18:20;0.70;99.90
16966;DHT22;8599;47.852;12.070;2024-01-15T10:20:47;0.70;99.90
16966;DHT22;8599;47.852;12.070;2024-01-15T10:23:14;0.80;99.90
16966;DHT22;8599;47.852;12.070;2024-01-15T10:25:43;0.80;99.90
16966;DHT22;8599;47.852;12.070;2024-01-15T10:28:10;1.00;99.90
16966;DHT22;8599;47.852;12.070;2024-01-15T10:30:36;0.90;99.90
16966;DHT22;8599;47.852;12.070;2024-01-15T10:33:04;1.00;99.90
16966;DHT22;8599;47.852;12.070;2024-01-15T10:35:32;1.00;99.90
16966;DHT22;8599;47.852;12.070;2024-01-15T10:37:59;1.10;99.90
16966;DHT22;8599;47.852;12.070;2024-01-15T10:40:26;1.20;99.90
16966;DHT22;8599;47.852;12.070;2024-01-15T10:42:55;1.10;99.90
16966;DHT22;8599;47.852;12.070;2024-01-15T10:45:22;1.10;99.90
16966;DHT22;8599;47.852;12.070;2024-01-15T10:47:49;1.10;99.90
16966;DHT22;8599;47.852;12.070;2024-01-15T10:50:17;1.10;99.90
16966;DHT22;8599;47.852;12.070;2024-01-15T10:52:44;1.20;99.90
16966;DHT22;8599;47.852;12.070;2024-01-15T10:55:11;1.10;99.90
16966;DHT22;8599;47.852;12.070;2024-01-15T10:57:38;1.10;99.90
16966;DHT22;8599;47.852;12.070;2024-01-15T11:00:08;1.10;99.90
16966;DHT22;8599;47.852;12.070;2024-01-15T11:02:40;1.10;99.90
16966;DHT22;8599;47.852;12.070;2024-01-15T11:05:07;1.20;99.90
16966;DHT22;8599;47.852;12.070;2024-01-15T11:07:34;1.20;99.90
16966;DHT22;8599;47.852;12.070;2024-01-15T11:10:03;1.20;99.90
16966;DHT22;8599;47.852;12.070;2024-01-15T11:12:31;1.10;99.90
16966;DHT22;8599;47.852;12.070;2024-01-15T11:15:02;1.10;99.90
16966;DHT22;8599;47.852;12.070;2024-01-15T11:17:59;1.30;99.90
16966;DHT22;8599;47.852;12.070;2024-01-15T11:20:26;1.20;99.90
16966;DHT22;8599;47.852;12.070;2024-01-15T11:22:53;1.20;99.90
16966;DHT22;8599;47.852;12.070;2024-01-15T11:25:22;1.20;99.90
16966;DHT22;8599;47.852;12.070;2024-01-15T11:27:50;1.20;99.90
16966;DHT22;8599;47.852;12.070;2024-01-15T11:30:18;1.20;99.90
16966;DHT22;8599;47.852;12.070;2024-01-15T11:32:47;1.30;99.90
16966;DHT22;8599;47.852;12.070;2024-01-15T11:35:14;1.20;99.90
16966;DHT22;8599;47.852;12.070;2024-01-15T11:37:58;1.20;99.90
16966;DHT22;8599;47.852;12.070;2024-01-15T11:40:37;1.20;99.90
16966;DHT22;8599;47.852;12.070;2024-01-15T11:43:04;1.20;99.90
16966;DHT22;8599;47.852;12.070;2024-01-15T11:45:31;1.20;99.90
16966;DHT22;8599;47.852;12.070;2024-01-15T11:48:14;1.10;99.90
16966;DHT22;8599;47.852;12.070;2024-01-15T11:50:43;1.10;99.90
16966;DHT22;8599;47.852;12.070;2024-01-15T11:53:17;1.20;99.90
16966;DHT22;8599;47.852;12.070;2024-01-15T11:55:45;1.30;99.90
16966;DHT22;8599;47.852;12.070;2024-01-15T11:58:14;1.20;99.90
16966;DHT22;8599;47.852;12.070;2024-01-15T12:00:43;1.30;99.90
16966;DHT22;8599;47.852;12.070;2024-01-15T12:03:10;1.30;99.90
16966;DHT22;8599;47.852;12.070;2024-01-15T12:05:39;1.20;99.90
16966;DHT22;8599;47.852;12.070;2024-01-15T12:08:07;1.30;99.90
16966;DHT22;8599;47.852;12.070;2024-01-15T12:10:36;1.40;99.90
16966;DHT22;8599;47.852;12.070;2024-01-15T12:13:05;1.40;99.90
16966;DHT22;8599;47.852;12.070;2024-01-15T12:15:35;1.50;99.90
16966;DHT22;8599;47.852;12.070;2024-01-15T12:18:04;1.70;99.90
16966;DHT22;8599;47.852;12.070;2024-01-15T12:20:31;1.60;99.90
16966;DHT22;8599;47.852;12.070;2024-01-15T12:23:01;1.60;99.90
16966;DHT22;8599;47.852;12.070;2024-01-15T12:25:29;1.60;99.90
16966;DHT22;8599;47.852;12.070;2024-01-15T12:27:57;1.50;99.90
16966;DHT22;8599;47.852;12.070;2024-01-15T12:30:26;1.40;99.90
16966;DHT22;8599;47.852;12.070;2024-01-15T12:32:53;1.60;99.90
16966;DHT22;8599;47.852;12.070;2024-01-15T12:35:20;1.50;99.90
16966;DHT22;8599;47.852;12.070;2024-01-15T12:37:47;1.60;99.90
16966;DHT22;8599;47.852;12.070;2024-01-15T12:40:19;1.70;99.90
16966;DHT22;8599;47.852;12.070;2024-01-15T12:42:46;1.70;99.90
16966;DHT22;8599;47.852;12.070;2024-01-15T12:45:13;1.80;99.90
16966;DHT22;8599;47.852;12.070;2024-01-15T12:47:41;1.90;99.90
16966;DHT22;8599;47.852;12.070;2024-01-15T12:50:09;1.90;99.90
16966;DHT22;8599;47.852;12.070;2024-01-15T12:52:39;1.80;99.90
16966;DHT22;8599;47.852;12.070;2024-01-15T12:55:07;1.80;99.90
16966;DHT22;8599;47.852;12.070;2024-01-15T12:57:36;1.90;99.90
16966;DHT22;8599;47.852;12.070;2024-01-15T13:00:04;1.90;99.90
16966;DHT22;8599;47.852;12.070;2024-01-15T13:02:33;1.80;99.90
16966;DHT22;8599;47.852;12.070;2024-01-15T13:05:00;1.80;99.90
16966;DHT22;8599;47.852;12.070;2024-01-15T13:07:29;1.80;99.90
16966;DHT22;8599;47.852;12.070;2024-01-15T13:09:56;1.80;99.90
16966;DHT22;8599;47.852;12.070;2024-01-15T13:12:24;1.80;99.90
16966;DHT22;8599;47.852;12.070;2024-01-15T13:14:52;1.70;99.90
16966;DHT22;8599;47.852;12.070;2024-01-15T13:17:19;1.80;99.90
16966;DHT22;8599;47.852;12.070;2024-01-15T13:19:47;1.70;99.90
16966;DHT22;8599;47.852;12.070;2024-01-15T13:22:14;1.80;99.90
16966;DHT22;8599;47.852;12.070;2024-01-15T13:24:41;1.90;99.90
16966;DHT22;8599;47.852;12.070;2024-01-15T13:27:08;1.80;99.90
16966;DHT22;8599;47.852;12.070;2024-01-15T13:29:35;1.90;99.90
16966;DHT22;8599;47.852;12.070;2024-01-15T13:32:03;2.10;99.90
16966;DHT22;8599;47.852;12.070;2024-01-15T13:34:31;2.20;99.90
16966;DHT22;8599;47.852;12.070;2024-01-15T13:36:58;2.20;99.90
16966;DHT22;8599;47.852;12.070;2024-01-15T13:39:25;2.10;99.90
16966;DHT22;8599;47.852;12.070;2024-01-15T13:41:58;2.10;99.90
16966;DHT22;8599;47.852;12.070;2024-01-15T13:44:25;2.10;99.90
16966;DHT22;8599;47.852;12.070;2024-01-15T13:46:53;2.00;99.90
16966;DHT22;8599;47.852;12.070;2024-01-15T13:49:21;2.10;99.90
16966;DHT22;8599;47.852;12.070;2024-01-15T13:51:49;2.00;99.90
16966;DHT22;8599;47.852;12.070;2024-01-15T13:54:16;2.20;99.90
16966;DHT22;8599;47.852;12.070;2024-01-15T13:56:43;2.10;99.90
16966;DHT22;8599;47.852;12.070;2024-01-15T13:59:11;2.00;99.90
16966;DHT22;8599;47.852;12.070;2024-01-15T14:01:38;2.00;99.90
16966;DHT22;8599;47.852;12.070;2024-01-15T14:04:05;1.90;99.90
16966;DHT22;8599;47.852;12.070;2024-01-15T14:06:33;2.00;99.90
16966;DHT22;8599;47.852;12.070;2024-01-15T14:09:00;1.90;99.90
16966;DHT22;8599;47.852;12.070;2024-01-15T14:11:26;1.90;99.90
16966;DHT22;8599;47.852;12.070;2024-01-15T14:13:53;1.90;99.90
16966;DHT22;8599;47.852;12.070;2024-01-15T14:16:20;1.90;99.90
16966;DHT22;8599;47.852;12.070;2024-01-15T14:18:47;1.90;99.90
16966;DHT22;8599;47.852;12.070;2024-01-15T14:21:14;1.90;99.90
16966;DHT22;8599;47.852;12.070;2024-01-15T14:23:42;1.90;99.90
16966;DHT22;8599;47.852;12.070;2024-01-15T14:26:09;1.90;99.90
16966;DHT22;8599;47.852;12.070;2024-01-15T14:28:36;1.90;99.90
16966;DHT22;8599;47.852;12.070;2024-01-15T14:31:04;1.90;99.90
16966;DHT22;8599;47.852;12.070;2024-01-15T14:33:31;1.80;99.90
16966;DHT22;8599;47.852;12.070;2024-01-15T14:35:58;1.80;99.90
16966;DHT22;8599;47.852;12.070;2024-01-15T14:38:24;1.80;99.90
16966;DHT22;8599;47.852;12.070;2024-01-15T14:40:53;1.80;99.90
16966;DHT22;8599;47.852;12.070;2024-01-15T14:43:20;1.90;99.90
16966;DHT22;8599;47.852;12.070;2024-01-15T14:45:47;1.80;99.90
16966;DHT22;8599;47.852;12.070;2024-01-15T14:48:14;1.80;99.90
16966;DHT22;8599;47.852;12.070;2024-01-15T14:50:41;1.70;99.90
16966;DHT22;8599;47.852;12.070;2024-01-15T14:53:08;1.80;99.90
16966;DHT22;8599;47.852;12.070;2024-01-15T14:55:34;1.80;99.90
16966;DHT22;8599;47.852;12.070;2024-01-15T14:58:03;1.80;99.90
16966;DHT22;8599;47.852;12.070;2024-01-15T15:00:30;1.70;99.90
16966;DHT22;8599;47.852;12.070;2024-01-15T15:02:57;1.70;99.90
16966;DHT22;8599;47.852;12.070;2024-01-15T15:05:24;1.80;99.90
16966;DHT22;8599;47.852;12.070;2024-01-15T15:07:52;1.80;99.90
16966;DHT22;8599;47.852;12.070;2024-01-15T15:10:18;1.90;99.90
16966;DHT22;8599;47.852;12.070;2024-01-15T15:12:45;2.10;99.90
16966;DHT22;8599;47.852;12.070;2024-01-15T15:15:14;2.10;99.90
16966;DHT22;8599;47.852;12.070;2024-01-15T15:17:42;2.00;99.90
16966;DHT22;8599;47.852;12.070;2024-01-15T15:20:10;2.00;99.90
16966;DHT22;8599;47.852;12.070;2024-01-15T15:22:37;1.90;99.90
16966;DHT22;8599;47.852;12.070;2024-01-15T15:25:04;2.00;99.90
16966;DHT22;8599;47.852;12.070;2024-01-15T15:27:34;2.10;99.90
16966;DHT22;8599;47.852;12.070;2024-01-15T15:30:01;2.10;99.90
16966;DHT22;8599;47.852;12.070;2024-01-15T15:32:29;2.10;99.90
16966;DHT22;8599;47.852;12.070;2024-01-15T15:34:56;2.10;99.90
16966;DHT22;8599;47.852;12.070;2024-01-15T15:37:23;2.10;99.90
16966;DHT22;8599;47.852;12.070;2024-01-15T15:39:50;2.10;99.90
16966;DHT22;8599;47.852;12.070;2024-01-15T15:42:17;2.10;99.90
16966;DHT22;8599;47.852;12.070;2024-01-15T15:44:44;2.10;99.90
16966;DHT22;8599;47.852;12.070;2024-01-15T15:47:12;2.20;99.90